Time;durP1;ratioP1;P1;durP2;ratioP2;P2;SDS_P1;SDS_P2;PMS_P1;PMS_P2;Temp;Humidity;BMP_temperature;BMP_pressure;BME280_temperature;BME280_humidity;BME280_pressure;Samples;Min_cycle;Max_cycle;Signal;HPM_P1;HPM_P2
2022/10/24 00:01:01;;;;;;;;;;;;;;;21.56;68.62;97669.84;580647;244;66944;-71
2022/10/24 00:03:29;;;;;;;;;;;;;;;21.55;68.60;97667.41;580726;244;65272;-71
2022/10/24 00:05:56;;;;;;;;;;;;;;;21.56;69.53;97675.20;580701;244;67749;-71
2022/10/24 00:08:24;;;;;;;;;;;;;;;21.56;68.61;97669.05;580779;244;67565;-71
2022/10/24 00:10:51;;;;;;;;;;;;;;;21.55;69.05;97670.09;580684;244;64899;-71
2022/10/24 00:13:19;;;;;;;;;;;;;;;21.55;68.39;97662.87;580705;244;66854;-71
2022/10/24 00:15:48;;;;;;;;;;;;;;;21.56;68.72;97666.38;580710;244;67045;-71
2022/10/24 00:18:16;;;;;;;;;;;;;;;21.56;69.02;97658.34;580711;244;66093;-71
2022/10/24 00:20:44;;;;;;;;;;;;;;;21.56;68.25;97655.67;580722;244;67709;-71
2022/10/24 00:23:12;;;;;;;;;;;;;;;21.54;67.74;97655.92;580659;244;66914;-72
2022/10/24 00:25:40;;;;;;;;;;;;;;;21.54;67.23;97649.77;580684;244;64894;-72
2022/10/24 00:28:07;;;;;;;;;;;;;;;21.54;66.82;97650.57;580672;244;65121;-71
2022/10/24 00:30:34;;;;;;;;;;;;;;;21.53;66.61;97648.17;580715;244;64905;-71
2022/10/24 00:33:02;;;;;;;;;;;;;;;21.53;67.15;97650.84;580735;244;62977;-71
2022/10/24 00:35:30;;;;;;;;;;;;;;;21.54;67.55;97655.92;580682;244;67096;-71
2022/10/24 00:37:57;;;;;;;;;;;;;;;21.52;66.72;97663.39;580666;244;67829;-71
2022/10/24 00:40:24;;;;;;;;;;;;;;;21.53;66.78;97658.87;580684;244;64891;-71
2022/10/24 00:42:53;;;;;;;;;;;;;;;21.52;66.15;97646.55;580703;244;64946;-71
2022/10/24 00:45:40;;;;;;;;;;;;;;;21.53;66.52;97650.84;580672;244;67635;-71
2022/10/24 00:48:16;;;;;;;;;;;;;;;21.52;66.83;97646.55;580727;244;62938;-70
2022/10/24 00:50:44;;;;;;;;;;;;;;;21.50;66.90;97655.64;580685;244;67280;-71
2022/10/24 00:53:12;;;;;;;;;;;;;;;21.53;67.21;97645.50;580669;244;67074;-71
2022/10/24 00:55:39;;;;;;;;;;;;;;;21.50;66.61;97628.09;580687;244;65159;-71
2022/10/24 00:58:08;;;;;;;;;;;;;;;21.50;66.82;97625.42;580674;244;67346;-71
2022/10/24 01:00:36;;;;;;;;;;;;;;;21.49;66.67;97618.45;580613;244;67531;-71
2022/10/24 01:03:03;;;;;;;;;;;;;;;21.49;66.37;97623.80;580741;244;66199;-72
2022/10/24 01:05:32;;;;;;;;;;;;;;;21.49;65.89;97619.24;580689;244;67049;-71
2022/10/24 01:08:04;;;;;;;;;;;;;;;21.49;66.25;97621.12;580599;244;66685;-71
2022/10/24 01:10:36;;;;;;;;;;;;;;;21.50;67.16;97622.75;580512;244;63859;-72
2022/10/24 01:13:11;;;;;;;;;;;;;;;21.49;67.17;97621.12;580648;244;67107;-71
2022/10/24 01:15:40;;;;;;;;;;;;;;;21.48;67.04;97617.65;580084;244;67277;-71
2022/10/24 01:18:15;;;;;;;;;;;;;;;21.48;67.04;97620.32;580471;244;65085;-71
2022/10/24 01:20:57;;;;;;;;;;;;;;;21.48;66.58;97620.32;580696;244;67191;-70
2022/10/24 01:23:32;;;;;;;;;;;;;;;21.48;66.55;97622.99;580063;244;66925;-70
2022/10/24 01:26:01;;;;;;;;;;;;;;;21.48;66.86;97620.32;580677;244;65204;-71
2022/10/24 01:28:47;;;;;;;;;;;;;;;21.47;66.24;97631.27;580698;244;67134;-70
2022/10/24 01:31:19;;;;;;;;;;;;;;;21.47;66.38;97621.40;580681;244;64810;-70
2022/10/24 01:33:48;;;;;;;;;;;;;;;21.46;66.41;97617.09;580162;244;62877;-70
2022/10/24 01:36:20;;;;;;;;;;;;;;;21.46;66.04;97617.09;580599;244;66996;-70
2022/10/24 01:38:55;;;;;;;;;;;;;;;21.47;67.38;97623.23;580441;244;65744;-70
2022/10/24 01:41:24;;;;;;;;;;;;;;;21.46;66.88;97626.98;580495;244;63677;-70
2022/10/24 01:44:01;;;;;;;;;;;;;;;21.46;67.01;97626.98;580692;244;65056;-71
2022/10/24 01:46:30;;;;;;;;;;;;;;;21.45;66.23;97634.22;580666;244;64833;-71
2022/10/24 01:48:59;;;;;;;;;;;;;;;21.45;67.77;97626.19;580750;244;64965;-71
2022/10/24 01:51:28;;;;;;;;;;;;;;;21.45;67.87;97623.52;580474;244;67094;-71
2022/10/24 01:53:56;;;;;;;;;;;;;;;21.44;66.91;97624.59;580676;244;64896;-71
2022/10/24 01:56:24;;;;;;;;;;;;;;;21.44;66.88;97621.92;580704;244;62865;-71
2022/10/24 01:58:52;;;;;;;;;;;;;;;21.44;66.88;97629.11;580692;244;67063;-72
2022/10/24 02:01:21;;;;;;;;;;;;;;;21.44;66.80;97631.78;580683;244;64727;-71
2022/10/24 02:03:50;;;;;;;;;;;;;;;21.43;66.90;97622.96;580710;244;62892;-71
2022/10/24 02:06:22;;;;;;;;;;;;;;;21.43;66.81;97624.84;580618;244;64983;-71
2022/10/24 02:08:51;;;;;;;;;;;;;;;21.43;66.77;97622.16;580525;244;66925;-71
2022/10/24 02:11:18;;;;;;;;;;;;;;;21.43;66.69;97622.96;580496;244;65072;-71
2022/10/24 02:13:47;;;;;;;;;;;;;;;21.43;66.98;97628.31;580646;244;67189;-71
2022/10/24 02:16:19;;;;;;;;;;;;;;;21.43;66.74;97627.51;580516;244;66928;-71
2022/10/24 02:18:48;;;;;;;;;;;;;;;21.43;67.39;97636.33;580682;244;65234;-71
2022/10/24 02:21:17;;;;;;;;;;;;;;;21.43;66.51;97630.98;580674;244;67171;-71
2022/10/24 02:23:49;;;;;;;;;;;;;;;21.43;67.22;97633.66;580678;244;66655;-71
2022/10/24 02:26:21;;;;;;;;;;;;;;;21.42;66.30;97629.38;580604;244;62802;-72
2022/10/24 02:28:50;;;;;;;;;;;;;;;21.42;66.85;97632.06;580642;244;65008;-71
2022/10/24 02:31:24;;;;;;;;;;;;;;;21.41;66.78;97625.08;580694;244;65156;-72
2022/10/24 02:33:50;;;;;;;;;;;;;;;21.42;66.32;97625.91;580491;244;62770;-71
2022/10/24 02:36:19;;;;;;;;;;;;;;;21.41;66.54;97619.73;580656;244;67176;-71
2022/10/24 02:38:48;;;;;;;;;;;;;;;21.41;67.73;97619.73;580638;244;67635;-72
2022/10/24 02:41:17;;;;;;;;;;;;;;;21.41;66.70;97613.59;580654;244;65137;-72
2022/10/24 02:43:48;;;;;;;;;;;;;;;21.41;66.61;97624.28;580791;244;48214;-71
2022/10/24 02:46:16;;;;;;;;;;;;;;;21.41;67.09;97618.94;580634;244;67136;-72
2022/10/24 02:48:45;;;;;;;;;;;;;;;21.40;66.79;97620.02;580696;244;65140;-72
2022/10/24 02:51:14;;;;;;;;;;;;;;;21.39;66.36;97615.70;580653;244;64722;-72
2022/10/24 02:53:41;;;;;;;;;;;;;;;21.39;66.82;97627.23;580657;244;66920;-72
2022/10/24 02:56:08;;;;;;;;;;;;;;;21.39;67.52;97621.05;580704;244;66049;-72
2022/10/24 02:58:36;;;;;;;;;;;;;;;21.38;66.48;97625.60;580666;244;67257;-72
2022/10/24 03:01:03;;;;;;;;;;;;;;;21.38;66.60;97620.25;580604;244;66919;-71
2022/10/24 03:03:31;;;;;;;;;;;;;;;21.37;66.55;97618.66;580656;244;65185;-72
2022/10/24 03:05:58;;;;;;;;;;;;;;;21.38;67.27;97620.25;580654;244;67964;-72
2022/10/24 03:08:26;;;;;;;;;;;;;;;21.37;65.83;97618.66;580729;244;67784;-72
2022/10/24 03:10:53;;;;;;;;;;;;;;;21.38;67.29;97616.78;580651;244;64925;-71
2022/10/24 03:13:21;;;;;;;;;;;;;;;21.37;66.80;97612.48;580689;244;67055;-71
2022/10/24 03:15:48;;;;;;;;;;;;;;;21.36;66.79;97611.68;580648;244;67161;-71
2022/10/24 03:18:16;;;;;;;;;;;;;;;21.37;66.72;97607.13;580640;244;64981;-71
2022/10/24 03:20:44;;;;;;;;;;;;;;;21.37;66.78;97605.28;580649;244;67889;-71
2022/10/24 03:23:11;;;;;;;;;;;;;;;21.37;66.61;97605.28;580692;244;64846;-71
2022/10/24 03:25:39;;;;;;;;;;;;;;;21.36;67.03;97606.33;580674;244;62818;-71
2022/10/24 03:28:06;;;;;;;;;;;;;;;21.37;67.02;97607.13;580673;244;67125;-71
2022/10/24 03:30:34;;;;;;;;;;;;;;;21.36;66.10;97609.00;580650;244;66938;-71
2022/10/24 03:33:01;;;;;;;;;;;;;;;21.37;67.41;97612.48;580662;244;65242;-71
2022/10/24 03:35:29;;;;;;;;;;;;;;;21.36;67.33;97603.66;580682;244;64927;-71
2022/10/24 03:37:56;;;;;;;;;;;;;;;21.35;67.31;97598.56;580709;244;64769;-71
2022/10/24 03:40:24;;;;;;;;;;;;;;;21.35;66.50;97604.70;580664;244;65216;-71
2022/10/24 03:42:51;;;;;;;;;;;;;;;21.34;66.90;97597.76;580641;244;68045;-71
2022/10/24 03:45:19;;;;;;;;;;;;;;;21.34;66.43;97592.41;580637;244;68069;-72
2022/10/24 03:47:46;;;;;;;;;;;;;;;21.35;66.69;97598.56;580729;244;65148;-71
2022/10/24 03:50:14;;;;;;;;;;;;;;;21.34;67.52;97587.06;580662;244;64945;-71
2022/10/24 03:52:41;;;;;;;;;;;;;;;21.33;65.56;97593.45;580679;244;64813;-71
2022/10/24 03:55:09;;;;;;;;;;;;;;;21.33;67.15;97598.80;580661;244;64015;-72
2022/10/24 03:57:36;;;;;;;;;;;;;;;21.32;66.81;97605.22;580663;244;64553;-71
2022/10/24 04:00:05;;;;;;;;;;;;;;;21.34;67.26;97602.30;580673;244;67556;-72
2022/10/24 04:02:33;;;;;;;;;;;;;;;21.33;66.88;97603.34;580747;244;45353;-72
2022/10/24 04:05:00;;;;;;;;;;;;;;;21.32;66.50;97605.22;580684;244;67504;-71
2022/10/24 04:07:28;;;;;;;;;;;;;;;21.33;67.50;97600.67;580703;244;67552;-72
2022/10/24 04:09:56;;;;;;;;;;;;;;;21.32;66.90;97597.20;580651;244;64747;-72
2022/10/24 04:12:24;;;;;;;;;;;;;;;21.32;66.46;97599.08;580693;244;68310;-71
2022/10/24 04:14:51;;;;;;;;;;;;;;;21.31;66.02;97603.62;580695;244;66802;-72
2022/10/24 04:17:19;;;;;;;;;;;;;;;21.31;65.98;97603.62;580673;244;62909;-72
2022/10/24 04:19:48;;;;;;;;;;;;;;;21.32;66.67;97604.42;580212;244;47695;-72
2022/10/24 04:22:16;;;;;;;;;;;;;;;21.31;66.84;97605.47;580593;244;66677;-72
2022/10/24 04:24:43;;;;;;;;;;;;;;;21.30;67.70;97607.34;580695;244;65180;-72
2022/10/24 04:27:11;;;;;;;;;;;;;;;21.30;67.41;97607.34;580668;244;67229;-72
2022/10/24 04:29:38;;;;;;;;;;;;;;;21.32;68.48;97615.12;580650;244;66886;-71
2022/10/24 04:32:06;;;;;;;;;;;;;;;21.30;67.17;97612.69;580656;244;64930;-71
2022/10/24 04:34:35;;;;;;;;;;;;;;;21.30;67.52;97615.36;580678;244;67145;-71
2022/10/24 04:37:02;;;;;;;;;;;;;;;21.30;67.79;97607.34;580726;244;64718;-71
2022/10/24 04:39:30;;;;;;;;;;;;;;;21.29;66.57;97605.74;580614;244;64885;-71
2022/10/24 04:41:57;;;;;;;;;;;;;;;21.29;66.79;97606.55;580700;244;67252;-71
2022/10/24 04:44:25;;;;;;;;;;;;;;;21.30;66.96;97596.65;580659;244;66947;-71
2022/10/24 04:46:52;;;;;;;;;;;;;;;21.30;66.25;97602.00;580666;244;64907;-71
2022/10/24 04:49:20;;;;;;;;;;;;;;;21.30;66.56;97602.00;580720;244;66915;-71
2022/10/24 04:51:48;;;;;;;;;;;;;;;21.31;68.91;97598.28;580722;244;64661;-71
2022/10/24 04:54:15;;;;;;;;;;;;;;;21.31;67.75;97597.45;580646;244;63048;-71
2022/10/24 04:56:43;;;;;;;;;;;;;;;21.32;69.01;97596.41;580675;244;65880;-71
2022/10/24 04:59:10;;;;;;;;;;;;;;;21.31;69.40;97600.95;580660;244;66057;-71
2022/10/24 05:01:38;;;;;;;;;;;;;;;21.31;68.39;97598.28;581390;243;62854;-71
2022/10/24 05:04:05;;;;;;;;;;;;;;;21.31;68.82;97597.45;582246;243;65077;-70
2022/10/24 05:06:33;;;;;;;;;;;;;;;21.32;69.49;97604.42;582273;243;65004;-71
2022/10/24 05:09:00;;;;;;;;;;;;;;;21.31;68.25;97606.30;581924;243;64874;-71
2022/10/24 05:11:28;;;;;;;;;;;;;;;21.31;68.55;97595.61;581596;243;67220;-71
2022/10/24 05:13:55;;;;;;;;;;;;;;;21.29;68.38;97601.20;582307;243;67017;-71
2022/10/24 05:16:23;;;;;;;;;;;;;;;21.29;65.12;97603.07;582230;243;65762;-72
2022/10/24 05:18:50;;;;;;;;;;;;;;;21.29;65.69;97605.74;582270;243;64531;-72
2022/10/24 05:21:18;;;;;;;;;;;;;;;21.30;67.32;97612.69;581239;243;64850;-72
2022/10/24 05:23:45;;;;;;;;;;;;;;;21.31;68.47;97606.30;581784;243;62787;-72
2022/10/24 05:26:13;;;;;;;;;;;;;;;21.31;69.13;97608.14;582177;243;66077;-72
2022/10/24 05:28:40;;;;;;;;;;;;;;;21.30;69.32;97615.36;582242;243;65848;-72
2022/10/24 05:31:08;;;;;;;;;;;;;;;21.30;67.54;97618.03;582153;243;62973;-72
2022/10/24 05:33:35;;;;;;;;;;;;;;;21.31;69.05;97625.02;582176;243;65728;-74
2022/10/24 05:36:06;;;;;;;;;;;;;;;21.32;69.48;97615.12;582328;243;64905;-72
2022/10/24 05:38:34;;;;;;;;;;;;;;;21.32;69.29;97620.47;582319;243;65091;-72
2022/10/24 05:41:01;;;;;;;;;;;;;;;21.32;69.87;97620.47;582372;243;67881;-72
2022/10/24 05:43:32;;;;;;;;;;;;;;;21.31;69.53;97619.66;582255;243;67186;-72
2022/10/24 05:45:59;;;;;;;;;;;;;;;21.31;69.76;97624.19;582306;243;65062;-72
2022/10/24 05:48:30;;;;;;;;;;;;;;;21.31;69.18;97627.69;582275;243;67134;-74
2022/10/24 05:50:58;;;;;;;;;;;;;;;21.31;69.53;97619.66;582314;243;64814;-73
2022/10/24 05:53:26;;;;;;;;;;;;;;;21.32;68.79;97620.47;582358;243;62924;-75
2022/10/24 05:55:54;;;;;;;;;;;;;;;21.31;68.91;97627.69;582306;243;67181;-74
2022/10/24 05:58:21;;;;;;;;;;;;;;;21.31;68.70;97627.69;582307;243;66900;-74
2022/10/24 06:00:50;;;;;;;;;;;;;;;21.31;69.75;97616.99;581988;243;62879;-73
2022/10/24 06:03:17;;;;;;;;;;;;;;;21.32;68.74;97617.80;580689;244;64831;-73
2022/10/24 06:05:45;;;;;;;;;;;;;;;21.31;68.47;97619.66;580606;244;66738;-72
2022/10/24 06:08:12;;;;;;;;;;;;;;;21.31;67.90;97619.66;580291;244;65198;-74
2022/10/24 06:10:40;;;;;;;;;;;;;;;21.32;70.10;97623.14;579034;241;67091;-74
2022/10/24 06:13:07;;;;;;;;;;;;;;;21.31;69.66;97619.66;578884;245;67230;-74
2022/10/24 06:15:35;;;;;;;;;;;;;;;21.30;67.54;97612.69;578889;245;66294;-73
2022/10/24 06:18:02;;;;;;;;;;;;;;;21.31;69.25;97614.31;578657;245;68174;-73
2022/10/24 06:20:30;;;;;;;;;;;;;;;21.31;69.24;97611.64;578960;245;66940;-74
2022/10/24 06:22:57;;;;;;;;;;;;;;;21.32;69.21;97607.09;578958;245;65997;-74
2022/10/24 06:25:25;;;;;;;;;;;;;;;21.33;69.79;97619.39;578942;245;68079;-73
2022/10/24 06:27:52;;;;;;;;;;;;;;;21.32;69.49;97609.77;578883;245;68010;-74
2022/10/24 06:30:20;;;;;;;;;;;;;;;21.32;69.05;97613.25;578952;245;64913;-72
2022/10/24 06:32:47;;;;;;;;;;;;;;;21.33;68.85;97609.50;579022;245;67857;-73
2022/10/24 06:35:15;;;;;;;;;;;;;;;21.34;69.27;97613.80;578886;245;67842;-75
2022/10/24 06:37:42;;;;;;;;;;;;;;;21.33;69.22;97617.52;578948;245;65091;-74
2022/10/24 06:40:10;;;;;;;;;;;;;;;21.35;68.89;97619.95;578871;245;65124;-75
2022/10/24 06:42:37;;;;;;;;;;;;;;;21.34;67.65;97613.80;578912;245;64940;-74
2022/10/24 06:45:06;;;;;;;;;;;;;;;21.36;68.83;97622.37;578976;245;65713;-74
2022/10/24 06:47:34;;;;;;;;;;;;;;;21.36;70.40;97617.03;578933;244;67144;-75
2022/10/24 06:50:01;;;;;;;;;;;;;;;21.38;69.93;97622.13;577612;245;66955;-74
2022/10/24 06:52:29;;;;;;;;;;;;;;;21.37;68.58;97624.00;577688;245;66083;-73
2022/10/24 06:54:56;;;;;;;;;;;;;;;21.38;69.54;97625.60;577690;245;64877;-68
2022/10/24 06:57:24;;;;;;;;;;;;;;;21.38;68.83;97636.30;577707;245;64848;-73
2022/10/24 06:59:53;;;;;;;;;;;;;;;21.39;68.89;97621.88;577611;245;63707;-73
2022/10/24 07:02:21;;;;;;;;;;;;;;;21.40;65.65;97628.83;582161;243;68041;-73
2022/10/24 07:04:48;;;;;;;;;;;;;;;21.41;64.05;97627.75;583544;243;67850;-76
2022/10/24 07:07:17;;;;;;;;;;;;;;;21.45;67.06;97633.41;583520;243;66035;-73
2022/10/24 07:09:45;;;;;;;;;;;;;;;21.45;68.57;97626.19;583598;243;64898;-74
2022/10/24 07:12:12;;;;;;;;;;;;;;;21.46;66.30;97629.66;583586;243;64915;-74
2022/10/24 07:14:40;;;;;;;;;;;;;;;21.46;68.03;97625.11;583606;243;63781;-73
2022/10/24 07:17:07;;;;;;;;;;;;;;;21.47;66.32;97631.27;583623;243;67095;-73
2022/10/24 07:19:35;;;;;;;;;;;;;;;21.49;64.58;97626.47;583595;243;67603;-72
2022/10/24 07:22:02;;;;;;;;;;;;;;;21.50;64.22;97625.42;583535;243;66011;-72
2022/10/24 07:24:29;;;;;;;;;;;;;;;21.53;63.60;97619.55;583631;243;67125;-74
2022/10/24 07:26:57;;;;;;;;;;;;;;;21.54;62.49;97623.83;583585;243;65227;-72
2022/10/24 07:29:25;;;;;;;;;;;;;;;21.55;61.61;97614.72;583614;243;64676;-71
2022/10/24 07:31:53;;;;;;;;;;;;;;;21.56;62.86;97616.35;581053;240;67987;-74
2022/10/24 07:34:20;;;;;;;;;;;;;;;21.59;61.36;97623.05;580508;244;67832;-73
2022/10/24 07:36:48;;;;;;;;;;;;;;;21.59;62.67;97615.83;580571;244;62859;-74
2022/10/24 07:39:15;;;;;;;;;;;;;;;21.62;60.02;97609.16;580490;244;64891;-73
2022/10/24 07:41:43;;;;;;;;;;;;;;;21.64;62.13;97609.71;580520;244;64896;-74
2022/10/24 07:44:10;;;;;;;;;;;;;;;21.64;61.05;97602.48;580541;244;62897;-72
2022/10/24 07:46:39;;;;;;;;;;;;;;;21.65;60.12;97600.61;580456;244;67687;-72
2022/10/24 07:49:07;;;;;;;;;;;;;;;21.66;61.11;97599.53;580533;244;66979;-71
2022/10/24 07:51:35;;;;;;;;;;;;;;;21.68;60.61;97602.76;580471;244;65109;-72
2022/10/24 07:54:02;;;;;;;;;;;;;;;21.68;60.75;97602.76;580458;244;67209;-72
2022/10/24 07:56:30;;;;;;;;;;;;;;;21.68;59.85;97592.86;580559;244;66918;-73
2022/10/24 07:58:57;;;;;;;;;;;;;;;21.69;59.94;97594.48;580517;244;64895;-73
2022/10/24 08:01:25;;;;;;;;;;;;;;;21.71;60.99;97586.19;580398;244;67100;-72
2022/10/24 08:03:57;;;;;;;;;;;;;;;21.71;60.03;97592.33;580577;244;66949;-72
2022/10/24 08:06:25;;;;;;;;;;;;;;;21.72;59.64;97590.48;580484;244;66074;-72
2022/10/24 08:08:53;;;;;;;;;;;;;;;21.73;61.30;97589.41;580550;244;64564;-70
2022/10/24 08:11:22;;;;;;;;;;;;;;;21.73;60.83;97584.86;580538;244;64802;-72
2022/10/24 08:13:50;;;;;;;;;;;;;;;21.76;60.27;97580.86;580580;244;65010;-72
2022/10/24 08:16:19;;;;;;;;;;;;;;;21.75;60.50;97579.26;580497;244;66832;-72
2022/10/24 08:18:48;;;;;;;;;;;;;;;21.76;61.76;97574.70;580545;244;66816;-71
2022/10/24 08:21:18;;;;;;;;;;;;;;;21.77;60.86;97579.81;580610;244;44276;-72
2022/10/24 08:23:47;;;;;;;;;;;;;;;21.77;61.23;97573.62;580503;244;66831;-73
2022/10/24 08:26:16;;;;;;;;;;;;;;;21.78;59.83;97580.61;580553;244;64757;-72
2022/10/24 08:28:45;;;;;;;;;;;;;;;21.79;60.57;97574.18;580567;244;65243;-69
2022/10/24 08:31:14;;;;;;;;;;;;;;;21.79;61.18;97574.98;580508;244;64782;-70
2022/10/24 08:33:42;;;;;;;;;;;;;;;21.79;60.06;97574.98;580619;244;66698;-69
2022/10/24 08:36:17;;;;;;;;;;;;;;;21.80;60.73;97571.25;580497;244;64964;-71
2022/10/24 08:38:44;;;;;;;;;;;;;;;21.80;60.08;97571.25;580550;244;67880;-71
2022/10/24 08:41:13;;;;;;;;;;;;;;;21.81;61.97;97566.70;580529;244;67261;-72
2022/10/24 08:43:40;;;;;;;;;;;;;;;21.80;61.84;97573.94;580479;244;66074;-69
2022/10/24 08:46:26;;;;;;;;;;;;;;;21.80;61.76;97573.94;580522;244;67059;-71
2022/10/24 08:48:58;;;;;;;;;;;;;;;21.80;61.88;97576.61;580569;244;65387;-71
2022/10/24 08:51:27;;;;;;;;;;;;;;;21.79;61.78;97569.63;580172;244;65157;-70
2022/10/24 08:53:55;;;;;;;;;;;;;;;21.80;61.34;97568.58;580173;244;67096;-70
2022/10/24 08:56:25;;;;;;;;;;;;;;;21.81;61.46;97570.18;580534;244;65721;-73
2022/10/24 08:58:52;;;;;;;;;;;;;;;21.80;61.46;97563.23;580547;244;62807;-70
2022/10/24 09:01:27;;;;;;;;;;;;;;;21.82;62.34;97565.62;580471;244;67004;-70
2022/10/24 09:03:56;;;;;;;;;;;;;;;21.81;61.30;97554.13;580533;244;67019;-70
2022/10/24 09:06:27;;;;;;;;;;;;;;;21.85;60.51;97546.37;580423;244;66134;-70
2022/10/24 09:09:02;;;;;;;;;;;;;;;21.87;60.33;97546.92;580577;244;65102;-70
2022/10/24 09:11:35;;;;;;;;;;;;;;;21.87;59.89;97547.72;580530;244;66952;-71
2022/10/24 09:14:04;;;;;;;;;;;;;;;21.89;60.45;97550.14;580576;244;65602;-70
2022/10/24 09:16:31;;;;;;;;;;;;;;;21.88;61.06;97552.02;580459;244;67298;-71
2022/10/24 09:18:59;;;;;;;;;;;;;;;21.90;59.72;97543.70;580537;244;64736;-71
2022/10/24 09:21:26;;;;;;;;;;;;;;;21.89;59.85;97540.23;580547;244;62740;-71
2022/10/24 09:23:54;;;;;;;;;;;;;;;21.91;59.33;97548.02;580481;244;64898;-69
2022/10/24 09:26:26;;;;;;;;;;;;;;;21.91;60.90;97542.66;580560;244;64864;-71
2022/10/24 09:28:55;;;;;;;;;;;;;;;21.91;60.97;97538.11;580565;244;65188;-68
2022/10/24 09:31:24;;;;;;;;;;;;;;;21.93;60.21;97535.15;580556;244;64969;-68
2022/10/24 09:33:53;;;;;;;;;;;;;;;21.92;60.19;97534.35;580523;244;66945;-68
2022/10/24 09:36:23;;;;;;;;;;;;;;;21.94;61.94;97534.90;584155;240;65081;-68
2022/10/24 09:38:51;;;;;;;;;;;;;;;21.93;61.17;97532.47;585648;240;65965;-68
2022/10/24 09:41:20;;;;;;;;;;;;;;;21.94;60.28;97531.42;585030;240;64672;-69
2022/10/24 09:43:53;;;;;;;;;;;;;;;21.94;61.20;97532.22;584732;240;64921;-68
2022/10/24 09:46:26;;;;;;;;;;;;;;;21.95;61.10;97525.79;583619;243;65023;-68
2022/10/24 09:49:00;;;;;;;;;;;;;;;21.97;60.75;97524.74;583981;240;66845;-68
2022/10/24 09:51:35;;;;;;;;;;;;;;;21.96;60.79;97518.56;584700;240;65487;-70
2022/10/24 09:54:20;;;;;;;;;;;;;;;21.97;60.45;97522.86;585130;240;68986;-70
2022/10/24 09:56:49;;;;;;;;;;;;;;;21.97;60.62;97517.51;580508;244;68195;-69
2022/10/24 09:59:36;;;;;;;;;;;;;;;21.98;60.21;97516.43;580554;244;64955;-68
2022/10/24 10:02:21;;;;;;;;;;;;;;;21.99;61.42;97517.23;580454;244;67119;-71
2022/10/24 10:04:50;;;;;;;;;;;;;;;21.99;61.16;97518.06;581894;240;64825;-71
2022/10/24 10:07:19;;;;;;;;;;;;;;;21.99;60.65;97515.38;579748;244;64947;-71
2022/10/24 10:09:48;;;;;;;;;;;;;;;21.99;60.55;97518.06;580428;244;65913;-71
2022/10/24 10:12:27;;;;;;;;;;;;;;;22.01;61.82;97517.78;580548;244;64930;-70
2022/10/24 10:14:54;;;;;;;;;;;;;;;22.00;62.61;97510.83;580587;244;62882;-69
2022/10/24 10:17:24;;;;;;;;;;;;;;;22.01;61.84;97504.39;580450;244;64595;-70
2022/10/24 10:19:52;;;;;;;;;;;;;;;22.02;60.96;97497.99;580442;244;64826;-70
2022/10/24 10:22:27;;;;;;;;;;;;;;;22.02;61.19;97501.47;580488;244;62734;-69
2022/10/24 10:24:55;;;;;;;;;;;;;;;22.02;60.91;97503.34;580580;244;65195;-71
2022/10/24 10:27:26;;;;;;;;;;;;;;;22.03;61.62;97502.27;580385;244;64865;-68
2022/10/24 10:30:16;;;;;;;;;;;;;;;22.03;60.74;97496.91;580504;244;64984;-70
2022/10/24 10:32:54;;;;;;;;;;;;;;;22.03;60.61;97496.91;580568;244;67162;-71
2022/10/24 10:35:26;;;;;;;;;;;;;;;22.04;60.73;97498.51;580331;244;64844;-69
2022/10/24 10:38:07;;;;;;;;;;;;;;;22.05;61.67;97494.78;580456;244;62665;-70
2022/10/24 10:40:39;;;;;;;;;;;;;;;22.04;61.36;97491.28;580279;244;67300;-71
2022/10/24 10:43:08;;;;;;;;;;;;;;;22.05;61.10;97476.05;580406;244;67443;-71
2022/10/24 10:45:37;;;;;;;;;;;;;;;22.06;62.47;97483.00;580498;244;64914;-70
2022/10/24 10:48:18;;;;;;;;;;;;;;;22.05;61.73;97476.05;580397;244;67129;-70
2022/10/24 10:50:47;;;;;;;;;;;;;;;22.06;60.56;97472.28;580269;240;67021;-70
2022/10/24 10:53:20;;;;;;;;;;;;;;;22.06;59.82;97469.61;588058;240;64899;-70
2022/10/24 10:56:07;;;;;;;;;;;;;;;22.08;60.37;97467.48;587257;240;67293;-70
2022/10/24 10:58:36;;;;;;;;;;;;;;;22.09;60.23;97466.40;585342;240;64869;-70
2022/10/24 11:01:08;;;;;;;;;;;;;;;22.09;60.72;97467.20;584576;240;62850;-70
2022/10/24 11:03:50;;;;;;;;;;;;;;;22.10;60.27;97462.67;581505;241;67127;-70
2022/10/24 11:06:22;;;;;;;;;;;;;;;22.10;60.63;97471.50;581156;241;64567;-69
2022/10/24 11:08:52;;;;;;;;;;;;;;;22.10;60.32;97458.12;581968;241;65064;-70
2022/10/24 11:11:31;;;;;;;;;;;;;;;22.11;60.76;97464.27;579815;241;67171;-68
2022/10/24 11:14:00;;;;;;;;;;;;;;;22.11;61.32;97459.70;578557;245;67346;-69
2022/10/24 11:16:29;;;;;;;;;;;;;;;22.12;60.52;97460.51;578638;244;65048;-68
2022/10/24 11:18:58;;;;;;;;;;;;;;;22.12;60.78;97458.62;578596;245;67299;-69
2022/10/24 11:21:27;;;;;;;;;;;;;;;22.13;60.86;97454.10;578586;245;65609;-69
2022/10/24 11:24:05;;;;;;;;;;;;;;;22.12;61.29;97453.27;578581;245;65390;-68
2022/10/24 11:26:34;;;;;;;;;;;;;;;22.14;61.52;97447.66;578475;244;67085;-68
2022/10/24 11:29:03;;;;;;;;;;;;;;;22.14;60.42;97442.31;578626;245;67842;-68
2022/10/24 11:31:41;;;;;;;;;;;;;;;22.14;60.58;97444.98;578620;245;62710;-69
2022/10/24 11:34:27;;;;;;;;;;;;;;;22.14;61.22;97450.34;578244;244;66742;-69
2022/10/24 11:37:02;;;;;;;;;;;;;;;22.14;61.19;97444.98;578616;245;65100;-68
2022/10/24 11:39:33;;;;;;;;;;;;;;;22.15;60.59;97441.23;578402;244;62913;-67
2022/10/24 11:42:05;;;;;;;;;;;;;;;22.15;61.59;97430.52;578479;244;65049;-67
2022/10/24 11:44:37;;;;;;;;;;;;;;;22.14;61.17;97428.93;578584;245;67054;-69
2022/10/24 11:47:06;;;;;;;;;;;;;;;22.16;62.64;97424.12;578546;244;66128;-68
2022/10/24 11:49:35;;;;;;;;;;;;;;;22.15;62.49;97423.32;578194;242;67146;-67
2022/10/24 11:52:07;;;;;;;;;;;;;;;22.15;61.71;97415.30;582600;241;67000;-67
2022/10/24 11:54:36;;;;;;;;;;;;;;;22.15;61.39;97420.64;584493;241;62948;-67
2022/10/24 11:57:05;;;;;;;;;;;;;;;22.17;61.62;97417.69;586646;241;64936;-67
2022/10/24 11:59:32;;;;;;;;;;;;;;;22.16;61.33;97416.09;586732;241;64746;-68
2022/10/24 12:02:08;;;;;;;;;;;;;;;22.17;61.47;97417.69;586805;241;65109;-68
2022/10/24 12:04:43;;;;;;;;;;;;;;;22.16;61.85;97416.88;586836;241;64848;-68
2022/10/24 12:07:17;;;;;;;;;;;;;;;22.17;61.36;97417.69;586504;241;64744;-68
2022/10/24 12:09:53;;;;;;;;;;;;;;;22.17;61.38;97412.33;586395;241;65145;-69
2022/10/24 12:12:37;;;;;;;;;;;;;;;22.18;59.89;97416.66;586828;241;64961;-69
2022/10/24 12:15:09;;;;;;;;;;;;;;;22.20;60.99;97424.41;586877;241;64786;-69
2022/10/24 12:17:53;;;;;;;;;;;;;;;22.19;62.65;97414.78;586714;241;62643;-69
2022/10/24 12:20:22;;;;;;;;;;;;;;;22.19;62.81;97412.10;583096;241;65961;-69
2022/10/24 12:22:51;;;;;;;;;;;;;;;22.17;61.57;97413.12;585411;241;66410;-68
2022/10/24 12:25:22;;;;;;;;;;;;;;;22.18;62.73;97408.63;586700;240;62890;-69
2022/10/24 12:27:54;;;;;;;;;;;;;;;22.17;61.61;97410.45;586855;241;64680;-69
2022/10/24 12:30:26;;;;;;;;;;;;;;;22.18;62.82;97400.59;586747;241;64461;-69
2022/10/24 12:32:55;;;;;;;;;;;;;;;22.17;61.83;97393.59;586682;241;63071;-68
2022/10/24 12:35:50;;;;;;;;;;;;;;;22.17;62.08;97399.74;586879;241;66935;-68
2022/10/24 12:38:28;;;;;;;;;;;;;;;22.17;61.87;97388.23;586601;241;66888;-69
2022/10/24 12:40:57;;;;;;;;;;;;;;;22.17;60.04;97385.56;586849;241;64067;-69
2022/10/24 12:43:35;;;;;;;;;;;;;;;22.19;60.92;97393.36;584588;241;66863;-69
2022/10/24 12:46:19;;;;;;;;;;;;;;;22.17;61.74;97385.56;586781;241;66910;-68
2022/10/24 12:48:59;;;;;;;;;;;;;;;22.18;60.84;97389.89;586914;241;65200;-69
2022/10/24 12:51:33;;;;;;;;;;;;;;;22.18;61.35;97387.22;586869;241;64685;-68
2022/10/24 12:54:14;;;;;;;;;;;;;;;22.18;60.95;97387.22;586770;241;66936;-70
2022/10/24 12:56:54;;;;;;;;;;;;;;;22.19;61.45;97394.16;586903;241;62790;-69
2022/10/24 12:59:32;;;;;;;;;;;;;;;22.16;61.84;97395.47;586830;241;67441;-69
2022/10/24 13:02:07;;;;;;;;;;;;;;;22.19;63.21;97390.69;587813;241;67075;-68